Fairmount, IL (61841)

7:18 PM CDT on August 03, 2015 (GMT -0500)
K9ADL | | Change Station
CLOSE
Current Station
Personal Weather Station
Location: Oakwood, IL
Elevation: 725 ft
Nearby Weather Stations

Elev 725 ft 40.17 °N, 87.77 °W | Updated 2 seconds ago

Clear
Clear
77.5 °F
Feels Like 79 °F
N
4.6
Wind Variable Wind from NW
Gusts 4.6 mph

Today
High -- | Low -- °F
--% Chance of Precip.
Yesterday
High -- | Low -- °F
Precip. -- in
5:51 AM 8:03 PM
Waning Gibbous, 83% visible
Pressure 29.86 in
Visibility 7.0 miles
Clouds Clear
Heat Index 79 °F
Dew Point 62 °F
Humidity 58%
Rainfall 0.00 in
Snow Depth Not available.
UV 1 out of 12
Pollen 7.00 out of 12
Air Quality Not available.
Flu Activity Not available.
METAR KDNV 032355Z AUTO 31007KT 7SM CLR 25/17 A2986 RMK AO2 T02520173 10295 20252

More Conditions Fewer Conditions

Pressure 29.86 in
Visibility 7.0 miles
Clouds Clear
Heat Index 79 °F
Dew Point 62 °F
Humidity 58%
Rainfall 0.00 in
Snow Depth Not available.
UV 1 out of 12
Pollen 7.00 out of 12
Air Quality Not available.
Flu Activity Not available.
METAR KDNV 032355Z AUTO 31007KT 7SM CLR 25/17 A2986 RMK AO2 T02520173 10295 20252

More Conditions Fewer Conditions

10-Day Weather Forecast

×

Almanac

Astronomy

Aug. 03, 2015 Rise Set
Actual Time
Civil Twilight
Nautical Twilight
Astronomical Twilight
Moon
Length of Visible Light
Length of Day
Tomorrow will be .
, % of the Moon is Illuminated

Today's Extremes

State Highs State Lows

Community

WunderPhotos

Upload Photos

1,843,788 photos uploaded!

WunderBlogs® & News

Nearby

Air Quality

  Air Quality AQ Index Pollutant
Not available.

Snow Depth

Station Depth Elevation

Earthquake Activity

City Distance Mag. Time & Date
Minimum magnitude displayed is 2.5.

Coastal Water Temperatures

Place Temperature

Stations

Nearby Weather Stations

Station Location Temp. Windchill Dew Point Humidity Wind Precip. Elev Updated Type